Time;durP1;ratioP1;P1;durP2;ratioP2;P2;SDS_P1;SDS_P2;PMS_P1;PMS_P2;Temp;Humidity;BMP_temperature;BMP_pressure;BME280_temperature;BME280_humidity;BME280_pressure;Samples;Min_cycle;Max_cycle;Signal;HPM_P1;HPM_P2
2023/12/31 00:00:16;;;;;;;1.08;0.98;;;;;;;;;;1023374;29;20031;-73
2023/12/31 00:00:47;;;;;;;4.20;3.83;;;;;;;;;;1023518;29;20015;-73
2023/12/31 00:01:17;;;;;;;1.10;1.05;;;;;;;;;;1019055;29;20027;-73
2023/12/31 00:01:48;;;;;;;1.85;1.75;;;;;;;;;;1019559;29;20103;-73
2023/12/31 00:02:18;;;;;;;3.92;3.17;;;;;;;;;;1019477;29;20031;-73
2023/12/31 00:02:49;;;;;;;4.70;3.45;;;;;;;;;;1019498;29;20023;-73
2023/12/31 00:03:19;;;;;;;1.85;1.67;;;;;;;;;;1023570;29;20027;-73
2023/12/31 00:03:49;;;;;;;4.47;4.15;;;;;;;;;;1019383;29;20019;-73
2023/12/31 00:04:20;;;;;;;3.03;2.80;;;;;;;;;;1019430;29;20024;-73
2023/12/31 00:04:50;;;;;;;7.30;4.57;;;;;;;;;;1019408;29;20110;-73
2023/12/31 00:05:21;;;;;;;0.93;0.93;;;;;;;;;;1019006;29;20147;-73
2023/12/31 00:05:51;;;;;;;10.70;3.90;;;;;;;;;;1018402;29;20032;-74
2023/12/31 00:06:30;;;;;;;;;;;;;;;;;;1055805;27;20425;-71
2023/12/31 00:07:01;;;;;;;3.22;2.70;;;;;;;;;;1055862;28;19954;-71
2023/12/31 00:07:31;;;;;;;8.90;2.85;;;;;;;;;;1055552;28;20024;-71
2023/12/31 00:08:02;;;;;;;4.32;3.63;;;;;;;;;;1055766;28;20020;-71
2023/12/31 00:08:32;;;;;;;3.17;1.52;;;;;;;;;;1055751;28;20024;-71
2023/12/31 00:09:03;;;;;;;8.25;4.03;;;;;;;;;;1055852;28;20031;-71
2023/12/31 00:09:33;;;;;;;7.00;4.60;;;;;;;;;;1055420;28;20020;-71
2023/12/31 00:10:04;;;;;;;1.98;1.88;;;;;;;;;;1055791;27;20111;-71
2023/12/31 00:10:35;;;;;;;2.35;2.25;;;;;;;;;;1055628;28;20069;-71
2023/12/31 00:11:05;;;;;;;1.95;1.23;;;;;;;;;;1055551;28;20098;-71
2023/12/31 00:11:36;;;;;;;7.25;5.72;;;;;;;;;;1055652;28;20059;-71
2023/12/31 00:12:06;;;;;;;22.13;5.88;;;;;;;;;;1055341;28;20019;-71
2023/12/31 00:12:37;;;;;;;6.05;2.88;;;;;;;;;;1055429;28;20484;-71
2023/12/31 00:13:07;;;;;;;4.90;3.95;;;;;;;;;;1055364;28;20024;-71
2023/12/31 00:13:38;;;;;;;2.08;1.92;;;;;;;;;;1055436;28;20400;-71
2023/12/31 00:14:08;;;;;;;1.60;1.50;;;;;;;;;;1055818;28;20020;-71
2023/12/31 00:14:39;;;;;;;9.65;5.40;;;;;;;;;;1055797;28;20075;-71
2023/12/31 00:15:09;;;;;;;1.23;1.20;;;;;;;;;;1055211;28;20032;-71
2023/12/31 00:15:39;;;;;;;9.63;3.28;;;;;;;;;;1055314;28;20024;-71
2023/12/31 00:16:11;;;;;;;7.90;5.07;;;;;;;;;;1055253;28;20116;-71
2023/12/31 00:16:41;;;;;;;4.57;4.10;;;;;;;;;;1055493;28;20023;-71
2023/12/31 00:17:12;;;;;;;4.03;3.25;;;;;;;;;;1055661;28;20077;-71
2023/12/31 00:17:42;;;;;;;5.10;3.53;;;;;;;;;;1055843;28;20016;-71
2023/12/31 00:18:13;;;;;;;5.68;3.28;;;;;;;;;;1055295;28;20571;-71
2023/12/31 00:18:43;;;;;;;7.40;5.43;;;;;;;;;;1055477;28;20027;-71
2023/12/31 00:19:14;;;;;;;8.57;3.67;;;;;;;;;;1055297;28;20055;-72
2023/12/31 00:19:44;;;;;;;6.57;4.82;;;;;;;;;;1055506;28;20028;-71
2023/12/31 00:20:14;;;;;;;21.30;5.95;;;;;;;;;;1055644;28;20391;-71
2023/12/31 00:20:45;;;;;;;2.33;2.13;;;;;;;;;;1055238;28;20479;-71
2023/12/31 00:21:15;;;;;;;4.47;2.70;;;;;;;;;;1054864;28;20380;-71
2023/12/31 00:21:46;;;;;;;4.80;2.78;;;;;;;;;;1055527;28;20463;-71
2023/12/31 00:22:16;;;;;;;4.88;3.60;;;;;;;;;;1053281;28;20028;-71
2023/12/31 00:22:46;;;;;;;6.28;4.53;;;;;;;;;;1055469;28;20023;-71
2023/12/31 00:23:17;;;;;;;4.10;3.22;;;;;;;;;;1055275;28;20055;-71
2023/12/31 00:23:47;;;;;;;4.10;3.10;;;;;;;;;;1055240;28;20498;-71
2023/12/31 00:24:18;;;;;;;3.13;2.65;;;;;;;;;;1055436;28;20167;-71
2023/12/31 00:24:54;;;;;;;5.07;4.43;;;;;;;;;;1055705;28;20012;-71
2023/12/31 00:25:24;;;;;;;11.40;3.53;;;;;;;;;;1054502;28;20020;-71
2023/12/31 00:25:54;;;;;;;5.47;4.32;;;;;;;;;;1056027;28;20027;-71
2023/12/31 00:26:25;;;;;;;15.50;3.95;;;;;;;;;;1055461;28;20523;-73
2023/12/31 00:26:55;;;;;;;4.72;3.67;;;;;;;;;;1053159;28;20024;-73
2023/12/31 00:27:26;;;;;;;6.78;4.43;;;;;;;;;;1054264;28;20024;-71
2023/12/31 00:27:56;;;;;;;7.28;4.93;;;;;;;;;;1053346;28;20024;-71
2023/12/31 00:28:27;;;;;;;5.78;4.40;;;;;;;;;;1053444;28;20521;-71
2023/12/31 00:28:57;;;;;;;7.38;4.10;;;;;;;;;;1055402;28;20020;-71
2023/12/31 00:29:31;;;;;;;3.33;2.45;;;;;;;;;;1055655;28;20373;-72
2023/12/31 00:30:02;;;;;;;4.18;3.58;;;;;;;;;;1055147;28;20023;-73
2023/12/31 00:30:33;;;;;;;3.22;2.08;;;;;;;;;;1055152;28;20023;-73
2023/12/31 00:31:03;;;;;;;8.93;3.72;;;;;;;;;;1055103;28;20113;-73
2023/12/31 00:31:33;;;;;;;8.85;5.97;;;;;;;;;;1055242;28;20455;-73
2023/12/31 00:32:04;;;;;;;22.40;7.25;;;;;;;;;;1055784;28;20126;-71
2023/12/31 00:32:35;;;;;;;9.43;7.00;;;;;;;;;;1054629;28;20024;-71
2023/12/31 00:33:05;;;;;;;5.03;3.47;;;;;;;;;;1054578;28;20028;-71
2023/12/31 00:33:36;;;;;;;10.13;4.97;;;;;;;;;;1055646;28;20023;-71
2023/12/31 00:34:08;;;;;;;4.20;3.85;;;;;;;;;;1055325;28;20435;-71
2023/12/31 00:34:38;;;;;;;18.83;7.78;;;;;;;;;;1055376;28;20019;-71
2023/12/31 00:35:09;;;;;;;3.92;2.97;;;;;;;;;;1055380;28;20412;-71
2023/12/31 00:35:39;;;;;;;23.77;6.25;;;;;;;;;;1055221;28;20036;-71
2023/12/31 00:36:10;;;;;;;21.08;3.63;;;;;;;;;;1054750;28;20074;-71
2023/12/31 00:36:40;;;;;;;4.35;3.95;;;;;;;;;;1055428;28;20016;-73
2023/12/31 00:37:11;;;;;;;8.88;5.25;;;;;;;;;;1055105;28;20084;-73
2023/12/31 00:37:41;;;;;;;8.73;6.47;;;;;;;;;;1055380;28;20023;-73
2023/12/31 00:38:11;;;;;;;3.97;3.65;;;;;;;;;;1055395;28;20107;-73
2023/12/31 00:38:43;;;;;;;2.45;2.25;;;;;;;;;;1055378;28;20062;-73
2023/12/31 00:39:14;;;;;;;5.82;5.32;;;;;;;;;;1055121;28;20024;-73
2023/12/31 00:39:44;;;;;;;8.23;3.83;;;;;;;;;;1055315;28;20507;-74
2023/12/31 00:40:14;;;;;;;5.90;3.83;;;;;;;;;;1055262;28;20058;-73
2023/12/31 00:40:45;;;;;;;4.97;3.85;;;;;;;;;;1055303;28;20015;-73
2023/12/31 00:41:15;;;;;;;9.82;3.15;;;;;;;;;;1055017;28;20120;-73
2023/12/31 00:41:46;;;;;;;8.93;5.13;;;;;;;;;;1055721;28;20047;-73
2023/12/31 00:42:16;;;;;;;7.13;5.57;;;;;;;;;;1055169;28;20080;-73
2023/12/31 00:42:47;;;;;;;6.68;4.65;;;;;;;;;;1055425;28;20027;-73
2023/12/31 00:43:17;;;;;;;13.55;4.88;;;;;;;;;;1055142;28;20024;-73
2023/12/31 00:43:47;;;;;;;7.32;5.30;;;;;;;;;;1055499;28;20019;-73
2023/12/31 00:44:18;;;;;;;19.48;3.78;;;;;;;;;;1055664;28;20059;-73
2023/12/31 00:44:48;;;;;;;7.57;4.50;;;;;;;;;;1055672;28;20019;-73
2023/12/31 00:45:19;;;;;;;26.02;6.03;;;;;;;;;;1055329;28;20051;-73
2023/12/31 00:45:49;;;;;;;10.18;3.35;;;;;;;;;;1055409;28;20100;-73
2023/12/31 00:46:20;;;;;;;9.65;4.25;;;;;;;;;;1055577;28;20084;-73
2023/12/31 00:46:50;;;;;;;5.75;3.17;;;;;;;;;;1055670;28;20028;-73
2023/12/31 00:47:21;;;;;;;18.58;4.78;;;;;;;;;;1055074;28;20024;-73
2023/12/31 00:47:52;;;;;;;4.38;3.65;;;;;;;;;;1055328;28;20020;-73
2023/12/31 00:48:22;;;;;;;6.40;3.78;;;;;;;;;;1053149;28;20507;-73
2023/12/31 00:48:53;;;;;;;11.63;5.28;;;;;;;;;;1053326;28;20373;-73
2023/12/31 00:49:23;;;;;;;9.60;4.07;;;;;;;;;;1055216;28;20118;-73
2023/12/31 00:49:54;;;;;;;7.47;3.47;;;;;;;;;;1055312;28;20575;-73
2023/12/31 00:50:24;;;;;;;7.32;4.53;;;;;;;;;;1055480;28;20089;-73
2023/12/31 00:50:55;;;;;;;14.10;4.38;;;;;;;;;;1055275;28;20084;-73
2023/12/31 00:51:26;;;;;;;4.78;3.90;;;;;;;;;;1055488;28;20028;-73
2023/12/31 00:51:56;;;;;;;5.57;2.88;;;;;;;;;;1055624;28;20065;-73
2023/12/31 00:52:27;;;;;;;3.15;2.67;;;;;;;;;;1055845;28;20020;-73
2023/12/31 00:52:57;;;;;;;6.32;3.45;;;;;;;;;;1055579;28;20118;-73
2023/12/31 00:53:28;;;;;;;4.50;3.97;;;;;;;;;;1055508;28;20020;-73
2023/12/31 00:53:58;;;;;;;6.03;3.53;;;;;;;;;;1055035;28;20115;-73
2023/12/31 00:54:28;;;;;;;8.50;6.40;;;;;;;;;;1055628;28;20026;-73
2023/12/31 00:54:59;;;;;;;14.77;5.38;;;;;;;;;;1055754;28;20024;-73
2023/12/31 00:55:29;;;;;;;4.88;4.38;;;;;;;;;;1055337;28;20028;-73
2023/12/31 00:56:00;;;;;;;4.05;3.67;;;;;;;;;;1055450;28;20032;-73
2023/12/31 00:56:30;;;;;;;9.55;3.08;;;;;;;;;;1055607;28;20018;-73
2023/12/31 00:57:00;;;;;;;6.93;3.88;;;;;;;;;;1055243;28;20027;-73
2023/12/31 00:57:31;;;;;;;6.82;6.10;;;;;;;;;;1055049;28;20418;-73
2023/12/31 00:58:02;;;;;;;5.68;3.90;;;;;;;;;;1055551;28;20020;-73
2023/12/31 00:58:32;;;;;;;6.82;4.72;;;;;;;;;;1055362;28;20028;-73
2023/12/31 00:59:03;;;;;;;12.15;4.95;;;;;;;;;;1055673;28;20024;-73
2023/12/31 00:59:33;;;;;;;7.03;4.03;;;;;;;;;;1055523;28;20031;-73
2023/12/31 01:00:05;;;;;;;3.03;2.72;;;;;;;;;;1055507;28;20048;-72
2023/12/31 01:00:35;;;;;;;10.32;6.72;;;;;;;;;;1054495;28;20020;-71
2023/12/31 01:01:06;;;;;;;3.70;2.33;;;;;;;;;;1055292;28;20061;-71
2023/12/31 01:01:36;;;;;;;9.45;4.75;;;;;;;;;;1055528;28;20152;-71
2023/12/31 01:02:07;;;;;;;5.28;3.05;;;;;;;;;;1055611;28;20102;-71
2023/12/31 01:02:37;;;;;;;6.10;5.18;;;;;;;;;;1055598;28;20123;-71
2023/12/31 01:03:07;;;;;;;7.82;4.10;;;;;;;;;;1055450;28;20106;-71
2023/12/31 01:03:38;;;;;;;10.80;4.68;;;;;;;;;;1055589;28;20028;-71
2023/12/31 01:04:08;;;;;;;7.05;4.60;;;;;;;;;;1055630;28;20020;-71
2023/12/31 01:04:39;;;;;;;11.23;5.53;;;;;;;;;;1055634;28;20024;-71
2023/12/31 01:05:09;;;;;;;4.57;4.05;;;;;;;;;;1055118;28;20015;-71
2023/12/31 01:05:39;;;;;;;8.32;3.83;;;;;;;;;;1055066;28;20059;-71
2023/12/31 01:06:10;;;;;;;2.53;1.50;;;;;;;;;;1054830;28;20167;-71
2023/12/31 01:06:40;;;;;;;18.40;4.75;;;;;;;;;;1055584;28;20020;-73
2023/12/31 01:07:13;;;;;;;6.47;5.70;;;;;;;;;;1055504;28;20081;-73
2023/12/31 01:07:43;;;;;;;10.13;2.50;;;;;;;;;;1054976;28;20027;-73
2023/12/31 01:08:14;;;;;;;16.52;5.70;;;;;;;;;;1055548;28;20031;-71
2023/12/31 01:08:44;;;;;;;43.78;5.05;;;;;;;;;;1055610;28;20510;-71
2023/12/31 01:09:15;;;;;;;3.08;2.88;;;;;;;;;;1055371;28;20024;-73
2023/12/31 01:09:46;;;;;;;2.92;2.25;;;;;;;;;;1055350;28;20028;-72
2023/12/31 01:10:16;;;;;;;1.58;1.50;;;;;;;;;;1054995;28;20062;-72
2023/12/31 01:10:47;;;;;;;10.18;4.07;;;;;;;;;;1055108;28;20118;-72
2023/12/31 01:11:17;;;;;;;11.85;5.20;;;;;;;;;;1054907;28;20028;-72
2023/12/31 01:11:47;;;;;;;4.32;3.50;;;;;;;;;;1055285;28;20024;-72
2023/12/31 01:12:18;;;;;;;17.25;3.75;;;;;;;;;;1055557;28;20023;-72
2023/12/31 01:12:48;;;;;;;42.53;9.57;;;;;;;;;;1055591;28;20485;-72
2023/12/31 01:13:19;;;;;;;16.27;4.53;;;;;;;;;;1055389;28;20478;-72
2023/12/31 01:13:49;;;;;;;3.00;2.25;;;;;;;;;;1055122;28;20034;-72
2023/12/31 01:14:20;;;;;;;6.68;3.50;;;;;;;;;;1055287;28;20475;-72
2023/12/31 01:14:50;;;;;;;16.75;6.43;;;;;;;;;;1053482;28;20512;-72
2023/12/31 01:15:22;;;;;;;3.83;3.08;;;;;;;;;;1052890;28;20016;-72
2023/12/31 01:15:52;;;;;;;3.45;3.22;;;;;;;;;;1055036;28;20027;-72
2023/12/31 01:16:23;;;;;;;6.63;4.95;;;;;;;;;;1055154;28;20050;-72
2023/12/31 01:16:53;;;;;;;5.60;3.38;;;;;;;;;;1055287;28;20019;-72
2023/12/31 01:17:24;;;;;;;2.03;1.85;;;;;;;;;;1055092;28;20019;-72
2023/12/31 01:17:54;;;;;;;0.95;0.95;;;;;;;;;;1052536;28;20028;-72
2023/12/31 01:18:24;;;;;;;10.45;5.32;;;;;;;;;;1052745;28;20115;-72
2023/12/31 01:18:55;;;;;;;3.35;3.13;;;;;;;;;;1052755;28;20034;-72
2023/12/31 01:19:26;;;;;;;6.32;4.15;;;;;;;;;;1052244;28;20020;-72
2023/12/31 01:19:56;;;;;;;18.25;4.75;;;;;;;;;;1052329;28;20016;-72
2023/12/31 01:20:27;;;;;;;8.85;6.13;;;;;;;;;;1052303;28;20451;-71
2023/12/31 01:20:57;;;;;;;3.50;2.10;;;;;;;;;;1052100;28;20107;-71
2023/12/31 01:21:28;;;;;;;3.78;3.50;;;;;;;;;;1052455;28;20509;-71
2023/12/31 01:21:58;;;;;;;11.75;5.88;;;;;;;;;;1052053;28;20024;-71
2023/12/31 01:22:28;;;;;;;3.80;3.45;;;;;;;;;;1052794;28;20020;-71
2023/12/31 01:22:59;;;;;;;3.75;3.00;;;;;;;;;;1052740;28;20020;-71
2023/12/31 01:23:29;;;;;;;13.98;3.28;;;;;;;;;;1052504;28;20157;-71
2023/12/31 01:24:00;;;;;;;2.05;1.90;;;;;;;;;;1052783;28;20023;-71
2023/12/31 01:24:30;;;;;;;1.88;1.77;;;;;;;;;;1052297;28;20048;-71
2023/12/31 01:25:00;;;;;;;2.40;2.20;;;;;;;;;;1052458;28;20061;-72
2023/12/31 01:25:31;;;;;;;4.25;3.88;;;;;;;;;;1052355;28;20024;-72
2023/12/31 01:26:01;;;;;;;6.32;3.00;;;;;;;;;;1051830;28;20475;-72
2023/12/31 01:26:32;;;;;;;8.02;2.47;;;;;;;;;;1052570;28;20020;-72
2023/12/31 01:27:03;;;;;;;3.85;3.50;;;;;;;;;;1052821;28;20028;-72
2023/12/31 01:27:33;;;;;;;5.05;4.15;;;;;;;;;;1052302;28;20024;-72
2023/12/31 01:28:04;;;;;;;4.25;3.88;;;;;;;;;;1052280;28;20020;-72
2023/12/31 01:28:34;;;;;;;10.50;6.95;;;;;;;;;;1052412;28;20028;-72
2023/12/31 01:29:05;;;;;;;3.22;2.17;;;;;;;;;;1052372;28;20051;-72
2023/12/31 01:29:37;;;;;;;3.17;2.88;;;;;;;;;;1052254;28;20020;-72
2023/12/31 01:30:07;;;;;;;4.88;2.50;;;;;;;;;;1052644;28;20032;-72
2023/12/31 01:30:38;;;;;;;1.88;1.77;;;;;;;;;;1052666;28;20027;-72
2023/12/31 01:31:08;;;;;;;0.85;0.85;;;;;;;;;;1052583;28;20048;-72
2023/12/31 01:31:38;;;;;;;3.45;3.00;;;;;;;;;;1052585;28;20055;-72
2023/12/31 01:32:09;;;;;;;2.10;2.00;;;;;;;;;;1052347;28;20136;-72
2023/12/31 01:32:40;;;;;;;3.47;3.00;;;;;;;;;;1052359;28;20035;-72
2023/12/31 01:33:10;;;;;;;8.80;5.75;;;;;;;;;;1052263;28;20043;-72
2023/12/31 01:33:41;;;;;;;7.97;4.90;;;;;;;;;;1052261;28;20463;-72
2023/12/31 01:34:11;;;;;;;7.30;3.17;;;;;;;;;;1052670;28;20104;-72
2023/12/31 01:34:41;;;;;;;14.32;4.00;;;;;;;;;;1052266;28;20045;-72
2023/12/31 01:35:12;;;;;;;2.30;2.17;;;;;;;;;;1052329;28;20193;-72
2023/12/31 01:35:42;;;;;;;13.05;3.42;;;;;;;;;;1052143;28;20016;-72
2023/12/31 01:36:16;;;;;;;5.82;2.97;;;;;;;;;;1052147;28;20487;-71
2023/12/31 01:36:47;;;;;;;4.07;3.17;;;;;;;;;;1052720;28;20034;-71
2023/12/31 01:37:17;;;;;;;2.50;2.30;;;;;;;;;;1052177;28;20027;-71
2023/12/31 01:37:48;;;;;;;9.77;3.20;;;;;;;;;;1052828;28;20111;-71
2023/12/31 01:38:18;;;;;;;1.73;1.63;;;;;;;;;;1052696;28;20020;-71
2023/12/31 01:38:49;;;;;;;3.80;2.35;;;;;;;;;;1052665;28;20024;-71
2023/12/31 01:39:19;;;;;;;6.55;3.72;;;;;;;;;;1051448;28;20019;-71
2023/12/31 01:39:50;;;;;;;0.60;0.60;;;;;;;;;;1051600;28;20415;-71
2023/12/31 01:40:20;;;;;;;3.70;2.55;;;;;;;;;;1051434;28;20131;-71
2023/12/31 01:40:52;;;;;;;17.70;6.80;;;;;;;;;;1052547;28;20480;-71
2023/12/31 01:41:22;;;;;;;2.22;2.13;;;;;;;;;;1052022;28;20023;-72
2023/12/31 01:41:53;;;;;;;5.47;3.90;;;;;;;;;;1052386;28;20020;-71
2023/12/31 01:42:23;;;;;;;2.45;2.08;;;;;;;;;;1052279;28;20020;-71
2023/12/31 01:42:54;;;;;;;0.80;0.77;;;;;;;;;;1052254;28;20063;-71
2023/12/31 01:43:24;;;;;;;1.27;1.17;;;;;;;;;;1052598;28;20031;-71
2023/12/31 01:44:02;;;;;;;1.67;1.58;;;;;;;;;;1052740;28;20024;-73
2023/12/31 01:44:32;;;;;;;6.68;2.83;;;;;;;;;;1052323;28;20028;-72
2023/12/31 01:45:04;;;;;;;2.13;1.83;;;;;;;;;;1052027;28;20503;-72
2023/12/31 01:45:35;;;;;;;3.53;3.22;;;;;;;;;;1050988;28;20028;-72
2023/12/31 01:46:06;;;;;;;7.85;1.33;;;;;;;;;;1052041;28;20105;-72
2023/12/31 01:46:36;;;;;;;3.10;2.58;;;;;;;;;;1052735;28;20028;-72
2023/12/31 01:47:07;;;;;;;11.75;2.00;;;;;;;;;;1052639;28;20020;-72
2023/12/31 01:47:38;;;;;;;5.35;2.35;;;;;;;;;;1052577;28;20024;-72
2023/12/31 01:48:08;;;;;;;2.05;1.92;;;;;;;;;;1052672;28;20020;-72
2023/12/31 01:48:39;;;;;;;2.83;2.38;;;;;;;;;;1052606;28;20078;-72
2023/12/31 01:49:09;;;;;;;2.83;2.63;;;;;;;;;;1052614;28;20036;-72
2023/12/31 01:49:40;;;;;;;8.30;5.45;;;;;;;;;;1052472;28;20047;-72
2023/12/31 01:50:12;;;;;;;1.83;1.25;;;;;;;;;;1052166;28;20031;-72
2023/12/31 01:50:43;;;;;;;5.43;4.93;;;;;;;;;;1052098;28;20553;-72
2023/12/31 01:51:13;;;;;;;2.97;2.55;;;;;;;;;;1051782;28;20129;-72
2023/12/31 01:51:44;;;;;;;6.22;3.13;;;;;;;;;;1052267;28;20024;-72
2023/12/31 01:52:14;;;;;;;8.45;3.05;;;;;;;;;;1052823;28;20072;-72
2023/12/31 01:52:45;;;;;;;4.63;1.65;;;;;;;;;;1052864;28;20047;-72
2023/12/31 01:53:15;;;;;;;6.38;3.80;;;;;;;;;;1052399;28;20082;-72
2023/12/31 01:53:46;;;;;;;4.35;3.25;;;;;;;;;;1052271;28;20089;-73
2023/12/31 01:54:17;;;;;;;9.23;4.03;;;;;;;;;;1052358;28;20020;-72
2023/12/31 01:54:48;;;;;;;3.30;1.33;;;;;;;;;;1052062;28;20024;-72
2023/12/31 01:55:18;;;;;;;5.40;2.97;;;;;;;;;;1052013;28;20359;-72
2023/12/31 01:55:49;;;;;;;6.05;4.60;;;;;;;;;;1052388;28;20031;-72
2023/12/31 01:56:19;;;;;;;4.53;3.75;;;;;;;;;;1052499;28;20020;-72
2023/12/31 01:56:51;;;;;;;1.25;1.25;;;;;;;;;;1051452;28;20030;-73
2023/12/31 01:57:23;;;;;;;19.42;3.40;;;;;;;;;;1052399;28;20024;-72
2023/12/31 01:57:54;;;;;;;6.82;4.18;;;;;;;;;;1052745;28;20340;-72
2023/12/31 01:58:24;;;;;;;1.85;1.75;;;;;;;;;;1052203;28;20077;-72
2023/12/31 01:58:56;;;;;;;5.38;4.63;;;;;;;;;;1052246;28;20024;-71
2023/12/31 01:59:26;;;;;;;6.60;4.65;;;;;;;;;;1052004;28;20072;-71
2023/12/31 01:59:58;;;;;;;6.88;3.03;;;;;;;;;;1050373;28;20089;-71
2023/12/31 02:00:28;;;;;;;5.80;2.83;;;;;;;;;;1052060;28;20471;-71
2023/12/31 02:00:59;;;;;;;14.93;4.03;;;;;;;;;;1052084;28;20055;-71
2023/12/31 02:01:30;;;;;;;5.95;4.70;;;;;;;;;;1047865;28;20392;-71
2023/12/31 02:02:01;;;;;;;11.20;5.68;;;;;;;;;;1052311;28;20023;-71
2023/12/31 02:02:32;;;;;;;19.17;4.03;;;;;;;;;;1052186;28;20646;-71
2023/12/31 02:03:04;;;;;;;2.00;1.85;;;;;;;;;;1052303;28;20069;-71
2023/12/31 02:03:34;;;;;;;5.45;3.97;;;;;;;;;;1051347;28;20034;-72
2023/12/31 02:04:06;;;;;;;2.97;2.67;;;;;;;;;;1051561;28;20020;-72
2023/12/31 02:04:37;;;;;;;1.73;1.60;;;;;;;;;;1051646;28;20032;-71
2023/12/31 02:05:07;;;;;;;1.38;1.20;;;;;;;;;;1052185;28;20057;-71
2023/12/31 02:05:38;;;;;;;16.70;4.85;;;;;;;;;;1052138;28;20024;-71
2023/12/31 02:06:08;;;;;;;4.65;3.47;;;;;;;;;;1051648;28;20541;-72
2023/12/31 02:06:39;;;;;;;2.35;2.20;;;;;;;;;;1052085;28;20148;-72
2023/12/31 02:07:10;;;;;;;4.50;1.90;;;;;;;;;;1052178;28;20039;-72
2023/12/31 02:07:40;;;;;;;2.35;2.25;;;;;;;;;;1052225;28;20012;-72
2023/12/31 02:08:10;;;;;;;6.07;4.38;;;;;;;;;;1052134;28;20016;-72
2023/12/31 02:08:41;;;;;;;1.77;1.67;;;;;;;;;;1052231;28;20008;-72
2023/12/31 02:09:11;;;;;;;6.57;4.85;;;;;;;;;;1049926;28;20365;-72
2023/12/31 02:09:42;;;;;;;3.50;1.73;;;;;;;;;;1050392;28;20116;-72
2023/12/31 02:10:12;;;;;;;4.72;2.45;;;;;;;;;;1049296;28;20028;-71
2023/12/31 02:10:43;;;;;;;4.55;3.45;;;;;;;;;;1050006;28;20031;-71
2023/12/31 02:11:15;;;;;;;2.42;2.28;;;;;;;;;;1051463;28;20427;-72
2023/12/31 02:11:46;;;;;;;5.35;4.85;;;;;;;;;;1050440;28;20592;-72
2023/12/31 02:12:17;;;;;;;10.80;3.70;;;;;;;;;;1050294;28;20036;-71
2023/12/31 02:12:48;;;;;;;2.45;2.10;;;;;;;;;;1045551;28;20504;-71
2023/12/31 02:13:18;;;;;;;10.18;4.32;;;;;;;;;;1045751;28;20028;-72
2023/12/31 02:13:49;;;;;;;6.43;4.15;;;;;;;;;;1048208;28;20021;-72
2023/12/31 02:14:19;;;;;;;5.85;4.05;;;;;;;;;;1048089;28;20024;-71
2023/12/31 02:14:50;;;;;;;5.20;4.72;;;;;;;;;;1052155;28;20012;-71
2023/12/31 02:15:33;;;;;;;3.65;3.33;;;;;;;;;;1052035;28;20106;-72
2023/12/31 02:16:11;;;;;;;7.38;3.50;;;;;;;;;;1052062;28;20027;-72
2023/12/31 02:16:42;;;;;;;1.27;1.27;;;;;;;;;;1052324;28;20062;-71
2023/12/31 02:17:12;;;;;;;1.15;1.13;;;;;;;;;;1052386;28;20074;-71
2023/12/31 02:17:42;;;;;;;3.35;2.85;;;;;;;;;;1052444;28;20458;-71
2023/12/31 02:18:13;;;;;;;4.90;4.13;;;;;;;;;;1052513;28;20514;-71
2023/12/31 02:18:43;;;;;;;2.60;2.40;;;;;;;;;;1052539;28;20467;-71
2023/12/31 02:19:14;;;;;;;33.72;4.40;;;;;;;;;;1052204;28;20024;-71
2023/12/31 02:19:44;;;;;;;8.23;3.38;;;;;;;;;;1052076;28;20073;-72
2023/12/31 02:20:15;;;;;;;2.28;2.08;;;;;;;;;;1051983;28;20107;-71
2023/12/31 02:20:45;;;;;;;13.52;5.65;;;;;;;;;;1049937;28;20032;-71
2023/12/31 02:21:16;;;;;;;1.55;1.27;;;;;;;;;;1049763;28;20036;-73
2023/12/31 02:21:46;;;;;;;1.27;1.13;;;;;;;;;;1052222;28;20027;-72
2023/12/31 02:22:16;;;;;;;7.55;5.50;;;;;;;;;;1052176;28;20016;-71
2023/12/31 02:22:47;;;;;;;6.60;4.05;;;;;;;;;;1052312;28;20039;-71
2023/12/31 02:23:17;;;;;;;1.70;1.58;;;;;;;;;;1052045;28;20024;-71
2023/12/31 02:23:48;;;;;;;4.13;3.00;;;;;;;;;;1052645;28;20031;-72
2023/12/31 02:24:19;;;;;;;1.08;1.05;;;;;;;;;;1052492;28;20024;-71
2023/12/31 02:24:51;;;;;;;4.65;3.20;;;;;;;;;;1051365;28;20027;-71
2023/12/31 02:25:26;;;;;;;2.63;1.98;;;;;;;;;;1052147;28;20020;-72
2023/12/31 02:26:02;;;;;;;4.78;2.97;;;;;;;;;;1051712;28;20383;-72
2023/12/31 02:26:33;;;;;;;2.65;2.47;;;;;;;;;;1052368;28;20081;-71
2023/12/31 02:27:03;;;;;;;2.05;1.85;;;;;;;;;;1052605;28;20538;-72
2023/12/31 02:27:34;;;;;;;12.80;3.67;;;;;;;;;;1052252;28;20024;-72
2023/12/31 02:28:07;;;;;;;0.93;0.93;;;;;;;;;;1051473;28;20028;-72
2023/12/31 02:28:38;;;;;;;3.70;3.28;;;;;;;;;;1051750;28;20069;-72
2023/12/31 02:29:08;;;;;;;2.72;2.47;;;;;;;;;;1052305;28;20105;-71
2023/12/31 02:29:39;;;;;;;5.00;3.30;;;;;;;;;;1051888;28;20020;-72
2023/12/31 02:30:10;;;;;;;2.45;2.25;;;;;;;;;;1052203;28;20468;-72
2023/12/31 02:30:40;;;;;;;1.88;1.60;;;;;;;;;;1052343;28;20464;-72
2023/12/31 02:31:10;;;;;;;0.50;0.50;;;;;;;;;;1052254;28;20020;-72
2023/12/31 02:31:42;;;;;;;2.65;1.98;;;;;;;;;;1052478;28;20053;-71
2023/12/31 02:32:12;;;;;;;2.90;2.70;;;;;;;;;;1052501;28;20020;-71
2023/12/31 02:32:42;;;;;;;0.88;0.88;;;;;;;;;;1052540;28;20529;-71
2023/12/31 02:33:13;;;;;;;0.60;0.60;;;;;;;;;;1052391;28;20063;-72
2023/12/31 02:33:43;;;;;;;3.15;2.85;;;;;;;;;;1052312;28;20016;-71
2023/12/31 02:34:14;;;;;;;5.85;2.15;;;;;;;;;;1052473;28;20020;-71
2023/12/31 02:34:45;;;;;;;1.83;1.73;;;;;;;;;;1052014;28;20142;-72
2023/12/31 02:35:15;;;;;;;7.82;4.07;;;;;;;;;;1051923;28;20075;-72
2023/12/31 02:35:46;;;;;;;1.73;1.63;;;;;;;;;;1052067;28;20028;-72
2023/12/31 02:36:16;;;;;;;2.05;1.95;;;;;;;;;;1051872;28;20074;-72
2023/12/31 02:36:47;;;;;;;3.15;1.60;;;;;;;;;;1052429;28;20028;-74
2023/12/31 02:37:17;;;;;;;1.48;1.38;;;;;;;;;;1052178;28;20456;-73
2023/12/31 02:37:47;;;;;;;2.00;1.90;;;;;;;;;;1051995;28;20483;-72
2023/12/31 02:38:18;;;;;;;10.70;2.22;;;;;;;;;;1052103;28;20476;-73
2023/12/31 02:38:48;;;;;;;3.78;3.47;;;;;;;;;;1052165;28;20023;-72
2023/12/31 02:39:19;;;;;;;2.92;2.45;;;;;;;;;;1051913;28;20028;-71
2023/12/31 02:39:49;;;;;;;3.30;3.10;;;;;;;;;;1052391;28;20020;-72
2023/12/31 02:40:20;;;;;;;5.55;1.48;;;;;;;;;;1051834;28;20020;-72
2023/12/31 02:40:51;;;;;;;6.53;3.38;;;;;;;;;;1051973;28;20020;-72
2023/12/31 02:41:21;;;;;;;2.17;2.08;;;;;;;;;;1049625;28;20122;-72
2023/12/31 02:41:51;;;;;;;5.90;1.48;;;;;;;;;;1046964;28;20024;-72
2023/12/31 02:42:22;;;;;;;1.90;1.27;;;;;;;;;;1050070;28;20112;-72
2023/12/31 02:42:52;;;;;;;0.82;0.82;;;;;;;;;;1050003;28;20024;-71
2023/12/31 02:43:23;;;;;;;3.90;3.55;;;;;;;;;;1051885;28;20469;-72
2023/12/31 02:43:53;;;;;;;1.40;1.13;;;;;;;;;;1051982;28;20023;-72
2023/12/31 02:44:24;;;;;;;4.35;2.03;;;;;;;;;;1052165;28;20028;-71
2023/12/31 02:44:54;;;;;;;1.80;1.70;;;;;;;;;;1052038;28;20024;-72
2023/12/31 02:45:25;;;;;;;1.85;1.77;;;;;;;;;;1051754;28;20020;-72
2023/12/31 02:45:55;;;;;;;2.30;1.95;;;;;;;;;;1052167;28;20031;-72
2023/12/31 02:46:26;;;;;;;3.20;1.75;;;;;;;;;;1052208;28;20032;-72
2023/12/31 02:46:56;;;;;;;0.88;0.88;;;;;;;;;;1052451;28;20055;-71
2023/12/31 02:47:27;;;;;;;0.50;0.50;;;;;;;;;;1052301;28;20048;-71
2023/12/31 02:47:57;;;;;;;2.20;2.08;;;;;;;;;;1052381;28;20015;-71
2023/12/31 02:48:28;;;;;;;1.25;1.15;;;;;;;;;;1052307;28;20056;-72
2023/12/31 02:48:59;;;;;;;7.32;1.17;;;;;;;;;;1051891;28;20028;-72
2023/12/31 02:49:29;;;;;;;4.15;3.75;;;;;;;;;;1052152;28;20519;-72
2023/12/31 02:49:59;;;;;;;5.88;3.05;;;;;;;;;;1052515;28;20024;-72
2023/12/31 02:50:31;;;;;;;3.10;2.25;;;;;;;;;;1052289;28;20020;-72
2023/12/31 02:51:01;;;;;;;0.95;0.95;;;;;;;;;;1052080;28;20459;-73
2023/12/31 02:51:33;;;;;;;1.75;1.65;;;;;;;;;;1052177;28;20024;-72
2023/12/31 02:52:03;;;;;;;0.95;0.95;;;;;;;;;;1052314;28;20031;-73
2023/12/31 02:52:35;;;;;;;0.77;0.77;;;;;;;;;;1052145;28;20012;-72
2023/12/31 02:53:05;;;;;;;1.40;1.30;;;;;;;;;;1051516;28;20451;-72
2023/12/31 02:53:36;;;;;;;3.35;2.42;;;;;;;;;;1051886;28;20038;-72
2023/12/31 02:54:06;;;;;;;1.05;0.93;;;;;;;;;;1052104;28;20022;-72
2023/12/31 02:54:37;;;;;;;2.17;1.65;;;;;;;;;;1052379;28;20020;-73
2023/12/31 02:55:07;;;;;;;0.70;0.70;;;;;;;;;;1052259;28;21281;-73
2023/12/31 02:55:38;;;;;;;0.75;0.75;;;;;;;;;;1052321;28;20049;-72
2023/12/31 02:56:08;;;;;;;2.65;1.63;;;;;;;;;;1052208;28;20205;-72
2023/12/31 02:56:40;;;;;;;9.85;2.25;;;;;;;;;;1052406;28;20391;-72
2023/12/31 02:57:10;;;;;;;5.70;2.97;;;;;;;;;;1052313;28;20016;-73
2023/12/31 02:57:41;;;;;;;6.90;3.03;;;;;;;;;;1052291;28;20024;-73
2023/12/31 02:58:11;;;;;;;2.97;1.15;;;;;;;;;;1052435;28;20059;-73
2023/12/31 02:58:42;;;;;;;4.25;2.65;;;;;;;;;;1052317;28;20020;-73
2023/12/31 02:59:12;;;;;;;0.63;0.63;;;;;;;;;;1051839;28;20032;-72
2023/12/31 02:59:42;;;;;;;0.90;0.90;;;;;;;;;;1049813;28;20020;-72
2023/12/31 03:00:13;;;;;;;2.22;2.05;;;;;;;;;;1049823;28;20137;-72
2023/12/31 03:00:43;;;;;;;1.30;1.20;;;;;;;;;;1049777;28;20472;-72
2023/12/31 03:01:14;;;;;;;1.58;1.48;;;;;;;;;;1051702;28;20020;-72
2023/12/31 03:01:44;;;;;;;1.85;1.75;;;;;;;;;;1052391;28;20023;-72
2023/12/31 03:02:15;;;;;;;2.40;2.00;;;;;;;;;;1052348;28;20028;-72
2023/12/31 03:02:45;;;;;;;1.58;1.48;;;;;;;;;;1052373;28;20024;-72
2023/12/31 03:03:15;;;;;;;5.15;1.55;;;;;;;;;;1052163;28;20447;-72
2023/12/31 03:03:46;;;;;;;1.30;0.88;;;;;;;;;;1051937;28;20015;-72